Sábado, 24 de Enero del 2015

portal contactenos mapa del sitio buscar Revisar Correo Corporativo

|Reporte METAR por Reginal » ||Reporte TAF por Reginal » ||Reporte METAR, TAF y SIN覲TICO »

Reporte METAR por Regional

|| La Paz || Santa Cruz || Cochabamba || Beni - Pando ||

Informe METAR emitido cada hora.

Regional La Paz

ESTACIÓN

AEROPUERTO

HORA UTC

DESCRIPCIÓN

SLRY

Reyes

14-18S|67-21W

22:00

SLRY 242200Z 00000KT 9999 FEW025 BKN200 32/25 Q1007 A2975 HR68 RWY HUM OPR 1 000M=

SLRQ

Rurrenabaque

14-25S|67-29W

22:00

SLRQ 242200Z 36008KT 9999 SCT017 BKN200 32/25 Q1006 A2971 HR68=

SLAP

Apolo

14-44S|68-24W

-

Mensaje no Recibido

SLSB

San Borja

14-51S|66-44W

23:00

SLSB 242300Z 00000KT 9999 FEW020 BKN200 29/25 Q1007 A2971 HR80 RWY NML=

SLLP

Internaci贸nal El Alto

16-08S|68-10W

03:00

SLLP 250300Z 28005KT 9999 FEW013 FEW017CB BKN200 07/03 Q1037 A3065 628.0 CB/LT/DIST/E AC HR72 NOSIG=

SLCN

Chara帽a

17-35S|69-25W

-

Mensaje no Recibido

SLOR

Oruro

17-57S|67-04W

20:00

SLOR 242000Z NIL=

SLUY

Uyuni

20-27S|62-52W

12:00

SLUY 241200Z 00000KT 9999 FEW015 07/02 Q1036 A3061 660.0 CI HR68=

Regional Cochabamba

ESTACIÓN

AEROPUERTO

HORA UTC

DESCRIPCIÓN

SLCB

Cochabamba

17-25S|66-10W

03:00

SLCB 250300Z 18004KT 9999 FEW025 FEW027CB SCT070 18/10 Q1024 A3025 751.0 HR60 CB LT NE/E FU CI NOSIG=

SLSU

Sucre

19-00S|65-17W

23:00

SLSU 242300Z 06008KT 9999 FEW020 BKN200 17/09 Q1025 A3029 HR59=

SLPO

Potos铆

19-32S|65-43W

17:00

SLPO 241700Z 06010KT 9999 BKN020 FEW023CB 10/06 Q1039 A3068 HR75 CB/S=

SLAG

Monteagudo

19-49S|63-58W

17:00

SLAG 241700Z 16004KT 9999 FEW036 32/20 Q1018 A3006 HR49 RWY CLSD=

SLVM

Villamontes

21-15S|63-24W

21:00

SLVM 242100Z 00000KT 9999 SCT023 FEW027CB BKN200 34/28 Q1004 A2965 HR70 CB SW/W/SE/E=

SLTJ

Tarija

21-33S|64-42W

-

SLTJ 250000Z 00000KT 9999 TS FEW027 FEW033CB BKN070 OVC200 15/14 Q1020 A3014 HR89 CB TS/N/NE/NW=

SLYA

Yacuiba

21-57S|63-39W

23:00

SLYA 242300Z 36006KT 2000 RA BKN008 OVC070 25/24 Q1011 A2987 HR95=

SLBJ

Bermejo

22-46S|64-18W

17:00

SLBJ 241700Z 18006KT 9999 SCT013 BKN200 33/26 Q1006 A2971 HR69=

Regional Santa Cruz

ESTACIÓN

AEROPUERTO

HORA UTC

DESCRIPCIÓN

SLAS

Ascenci贸n de Guarayos

15-55S|63-09W

23:00

SLAS 242300Z 00000KT 9999 FEW017 BKN200 30/24 Q1008 A2977 HR70 RWY NML=

SLCP

Concepci贸n

16-08S|62-01W

22:00

SLCP 242200Z 00000KT 9999 FEW020 BKN200 29/24 Q1010 A2983 HR76 RWY NML=

SLJV

San Javier

16-16S|62-28W

22:00

SLJV 242200Z 00000KT 9999 NSC 29/24 Q1007 A2974 HR72 RWY NML=

SLTI

San Mat铆as

16-20S|58-24W

22:00

SLTI 242200Z 00000KT 9999 SCT017 32/25 Q1012 A2988 HR68 RWY NML =

SLSI

San Ignacio de Velasco

16-23S|60-57W

23:00

SLSI 242300Z 00000KT 9999 SCT020 25/24 Q1008 A2976 HR91 RWY NML =

SLVR

Internaci贸nal Viru Viru

17-38S|63-08W

03:00

SLVR 250300Z 03004KT 9999 FEW030CB BKN200 24/23 Q1011 A2986 HR89 CB/LT/W FU NOSIG=

SLET

El Trompillo

17-48S|63-10W

23:00

SLET 242300Z 32012KT 9999 FEW017 BKN200 31/21 Q1007 A2975 HR56 NOSIG=

SLJE

San Jos茅 de Chiquitos

17-49S|60-44W

22:00

SLJE 242200Z 36004KT 9999 FEW017 SCT200 31/21 Q1009 A2980 HR56 RWY NML=

SLRB

Robor茅

18-19S|59-45W

23:00

SLRB 242300Z 36008KT 9999 SCT020 31/24 Q1010 A2982 HR68 RWY NML =

SLVG

Valle Grande

18-28S|64-05W

21:00

SLVG 242100Z 00000KT 9999 SCT027 BKN200 23/14 Q1021 A3015 HR52 RWY NML=

SLPS

Puerto Su谩rez

18-58S|57-49W

23:00

SLPS 242300Z 00000KT 9999 BKN020 OVC070 30/25 Q1007 A2974 HR73 FU=

SLCA

Camiri

20-00S|63-31W

23:00

SLCA 242300Z 00000KT 9999 NSC 30/18 Q1009 A2980 HR49 RWY NML=

Regional Beni

ESTACIÓN

AEROPUERTO

HORA UTC

DESCRIPCIÓN

SLGM

Guayaramer铆n

10-49S|65-20W

23:00

SLGM 242300Z 34004KT 9999 FEW015 BKN200 26/23 Q1008 A2979 HR88=

SLRI

Riberalta

11-00S|66-04W

23:00

SLRI 242300Z 00000KT 9999 SCT015 FEW020CB BKN200 26/24 Q1009 A2980 HR89 CB NW=

SLCO

Cobija

11-02S|68-47W

22:00

SLCO 242200Z 00000KT 9999 FEW020 FEW023CB BKN080 BKN200 29/25 Q1008 A2978 981.0 HR76 CB/NE/SW SH/SW RETS=

SLJO

San Joaquin

13-03S|64-39W

22:00

SLJO 242200Z 00000KT 9999 VCTS FEW017 FEW023CB BKN200 26/24 Q1007 A2976 HR92 CB/TS NE RWY OPR C210=

SLMG

San Magdalena

13-15S|64-03W

22:00

SLMG 242200Z 30004KT 9999 FEW017 FEW023CB BKN200 28/24 Q1008 A2978 HR80 CB NE/SE RWY NML=

SLRA

San Ram贸n

13-15S|64-36W

22:00

SLRA 242200Z 00000KT 9999 FEW017 FEW023CB BKN200 25/24 Q1007 A2976 HR93 CB W RWY OPR C206=

SLBU

Baures

13-39S|63-42W

22:00

SLBU 242200Z 35003KT 9999 SCT017 BKN200 27/24 Q1007 A2974 HR85 RWY NML=

SLSA

Santa Ana de Yacuma

13-45S|65-26W

23:00

SLSA 242300Z 36006KT 8000 VCSH FEW017 FEW023CB BKN200 28/24 Q1005 A2968 HR78 CB/SH N/NW=

SLSR

Santa Rosa

14-04S|66-47W

22:00

SLSR 242200Z 35003KT 9999 SCT017 FEW023CB BKN200 33/26 Q1003 A2963 HR66 CB N/NE RWY NML=

SLTR

Trinidad

14-49S|64-54W

23:00

SLTR 242300Z 32003KT 9999 FEW020 BKN200 28/24 Q1008 A2978 990.0 HR80 NOSIG=

SLSM

San Ignacio de Moxos

14-57S|65-38W

22:00

SLSM 242200Z 00000KT 9999 FEW017 BKN200 30/23 Q1004 A2966 HR68 RWY OPR C206=